Time;durP1;ratioP1;P1;durP2;ratioP2;P2;SDS_P1;SDS_P2;PMS_P1;PMS_P2;Temp;Humidity;BMP_temperature;BMP_pressure;BME280_temperature;BME280_humidity;BME280_pressure;Samples;Min_cycle;Max_cycle;Signal;HPM_P1;HPM_P2
2021/06/21 00:01:52;;;;;;;6.87;3.67;;;18.90;99.90;;;;;;4995476;28;20232;-80
2021/06/21 00:04:19;;;;;;;5.13;4.10;;;18.80;99.90;;;;;;4995407;28;20204;-80
2021/06/21 00:06:46;;;;;;;6.03;4.10;;;18.90;99.90;;;;;;5012896;28;20240;-80
2021/06/21 00:09:13;;;;;;;5.73;3.83;;;18.90;99.90;;;;;;5003625;28;20201;-80
2021/06/21 00:11:40;;;;;;;5.07;3.93;;;18.70;99.90;;;;;;4998011;28;20200;-79
2021/06/21 00:14:07;;;;;;;5.47;4.37;;;18.60;99.90;;;;;;4992953;28;20228;-79
2021/06/21 00:16:34;;;;;;;7.23;4.93;;;18.50;99.90;;;;;;5035948;28;20198;-79
2021/06/21 00:19:01;;;;;;;6.20;3.80;;;18.50;99.90;;;;;;4998030;28;20367;-80
2021/06/21 00:21:28;;;;;;;5.67;3.93;;;18.50;99.90;;;;;;4996252;28;20565;-80
2021/06/21 00:23:55;;;;;;;7.60;4.33;;;18.50;99.90;;;;;;5018030;28;20621;-80
2021/06/21 00:26:22;;;;;;;8.23;4.60;;;18.50;99.90;;;;;;4998707;28;20228;-80
2021/06/21 00:28:49;;;;;;;8.67;4.60;;;18.40;99.90;;;;;;4988187;28;20838;-80
2021/06/21 00:31:15;;;;;;;5.67;4.07;;;18.40;99.90;;;;;;5005668;28;20236;-80
2021/06/21 00:33:42;;;;;;;8.87;4.40;;;18.30;99.90;;;;;;5024400;28;20235;-80
2021/06/21 00:36:09;;;;;;;5.07;4.23;;;18.20;99.90;;;;;;5014846;28;20258;-80
2021/06/21 00:38:36;;;;;;;7.20;4.40;;;18.20;99.90;;;;;;5009257;28;20262;-80
2021/06/21 00:41:03;;;;;;;8.03;3.93;;;18.20;99.90;;;;;;4999279;28;20250;-80
2021/06/21 00:43:30;;;;;;;6.43;4.70;;;18.10;99.90;;;;;;4989584;28;20230;-80
2021/06/21 00:45:57;;;;;;;4.90;4.40;;;18.10;99.90;;;;;;5001973;28;21307;-80
2021/06/21 00:48:24;;;;;;;6.30;4.20;;;18.10;99.90;;;;;;5017173;28;20215;-80
2021/06/21 00:50:51;;;;;;;4.70;4.07;;;18.30;99.90;;;;;;5029542;28;20278;-79
2021/06/21 00:53:19;;;;;;;7.33;3.93;;;18.10;99.90;;;;;;4996515;28;20204;-80
2021/06/21 00:55:46;;;;;;;5.13;4.43;;;17.80;99.90;;;;;;5013506;28;20278;-80
2021/06/21 00:58:13;;;;;;;7.53;5.40;;;17.80;99.90;;;;;;5017419;28;20630;-80
2021/06/21 01:00:40;;;;;;;8.27;4.40;;;17.80;99.90;;;;;;5024259;28;20239;-80
2021/06/21 01:03:07;;;;;;;6.97;4.60;;;17.70;99.90;;;;;;5002907;28;20215;-79
2021/06/21 01:05:35;;;;;;;6.60;4.53;;;17.60;99.90;;;;;;5035305;28;20204;-79
2021/06/21 01:08:04;;;;;;;7.10;4.37;;;17.60;99.90;;;;;;5002701;28;20195;-79
2021/06/21 01:10:33;;;;;;;9.97;4.70;;;17.50;99.90;;;;;;5017903;28;20234;-79
2021/06/21 01:13:30;;;;;;;6.60;4.50;;;17.40;99.90;;;;;;5020066;28;20295;-81
2021/06/21 01:16:10;;;;;;;7.27;4.80;;;17.50;99.90;;;;;;5001709;28;20204;-80
2021/06/21 01:18:41;;;;;;;5.37;4.73;;;17.40;99.90;;;;;;5017475;28;20223;-80
2021/06/21 01:21:24;;;;;;;7.47;4.83;;;17.20;99.90;;;;;;5037162;28;20279;-80
2021/06/21 01:24:14;;;;;;;6.30;5.00;;;17.20;99.90;;;;;;5036361;28;20302;-80
2021/06/21 01:27:05;;;;;;;7.07;5.43;;;17.00;99.90;;;;;;5032160;28;20286;-80
2021/06/21 01:30:01;;;;;;;9.70;5.80;;;17.00;99.90;;;;;;5017152;28;20456;-80
2021/06/21 01:32:41;;;;;;;8.90;5.83;;;17.00;99.90;;;;;;5026973;28;20354;-81
2021/06/21 01:35:14;;;;;;;9.40;6.03;;;17.00;99.90;;;;;;5024229;28;20217;-81
2021/06/21 01:37:42;;;;;;;7.27;6.07;;;17.00;99.90;;;;;;5017849;28;20633;-81
2021/06/21 01:40:11;;;;;;;9.17;5.90;;;16.90;99.90;;;;;;5016170;28;20223;-81
2021/06/21 01:42:40;;;;;;;9.47;6.33;;;16.80;99.90;;;;;;5001269;28;20296;-80
2021/06/21 01:45:09;;;;;;;11.53;6.67;;;16.70;99.90;;;;;;5002583;28;20206;-80
2021/06/21 01:47:41;;;;;;;10.10;6.27;;;16.50;99.90;;;;;;5019401;28;20266;-80
2021/06/21 01:50:09;;;;;;;8.50;6.57;;;16.50;99.90;;;;;;5017918;28;20685;-80
2021/06/21 01:52:40;;;;;;;13.10;7.93;;;16.50;99.90;;;;;;5004192;28;20218;-80
2021/06/21 01:55:10;;;;;;;9.90;6.43;;;16.40;99.90;;;;;;5019896;28;20266;-80
2021/06/21 01:57:37;;;;;;;10.87;7.40;;;16.30;99.90;;;;;;5026123;28;20640;-79
2021/06/21 02:00:09;;;;;;;9.33;6.50;;;16.30;99.90;;;;;;5006915;28;20198;-79
2021/06/21 02:02:37;;;;;;;10.93;7.23;;;16.30;99.90;;;;;;5016984;28;20220;-80
2021/06/21 02:05:07;;;;;;;9.70;6.53;;;16.30;99.90;;;;;;5019367;28;20531;-79
2021/06/21 02:07:35;;;;;;;9.17;6.67;;;16.40;99.90;;;;;;5018523;28;20204;-79
2021/06/21 02:10:04;;;;;;;9.60;6.90;;;16.40;99.90;;;;;;5010887;28;20223;-80
2021/06/21 02:12:32;;;;;;;10.73;7.10;;;16.30;99.90;;;;;;5022682;28;20551;-80
2021/06/21 02:15:00;;;;;;;9.33;6.77;;;16.30;99.90;;;;;;4997359;28;20224;-79
2021/06/21 02:17:30;;;;;;;9.23;6.10;;;16.40;99.90;;;;;;5002497;28;20193;-79
2021/06/21 02:20:25;;;;;;;9.20;5.97;;;16.20;99.90;;;;;;5020014;28;20622;-79
2021/06/21 02:22:52;;;;;;;8.60;6.07;;;16.10;99.90;;;;;;5032414;28;20300;-79
2021/06/21 02:25:19;;;;;;;8.93;5.90;;;16.10;99.90;;;;;;5014795;28;20234;-79
2021/06/21 02:27:47;;;;;;;7.83;5.60;;;16.00;99.90;;;;;;4996805;28;20568;-79
2021/06/21 02:30:16;;;;;;;8.03;5.83;;;16.00;99.90;;;;;;5014465;28;20287;-79
2021/06/21 02:32:45;;;;;;;9.87;5.60;;;16.00;99.90;;;;;;4998013;28;20348;-79
2021/06/21 02:35:13;;;;;;;9.37;5.60;;;15.90;99.90;;;;;;5014025;28;20606;-79
2021/06/21 02:37:41;;;;;;;6.83;5.53;;;15.90;99.90;;;;;;5013869;28;20606;-79
2021/06/21 02:40:11;;;;;;;7.53;5.63;;;15.90;99.90;;;;;;4995358;28;20285;-79
2021/06/21 02:42:38;;;;;;;6.83;5.60;;;16.00;99.90;;;;;;5016206;28;20226;-78
2021/06/21 02:45:06;;;;;;;6.07;4.63;;;16.00;99.90;;;;;;5032512;28;20206;-78
2021/06/21 02:47:34;;;;;;;6.07;4.20;;;15.80;99.90;;;;;;5000196;28;20248;-79
2021/06/21 02:50:02;;;;;;;7.10;4.60;;;15.80;99.90;;;;;;5015640;28;20193;-78
2021/06/21 02:52:47;;;;;;;5.03;4.07;;;15.80;99.90;;;;;;5019480;28;20224;-79
2021/06/21 02:55:21;;;;;;;5.77;4.60;;;15.80;99.90;;;;;;5030396;28;20197;-79
2021/06/21 02:57:53;;;;;;;7.37;4.87;;;15.70;99.90;;;;;;5017861;28;20193;-79
2021/06/21 03:00:20;;;;;;;5.70;4.80;;;15.60;99.90;;;;;;5014909;28;20660;-80
2021/06/21 03:02:47;;;;;;;6.83;4.40;;;15.80;99.90;;;;;;5016173;28;20194;-79
2021/06/21 03:05:17;;;;;;;5.60;4.10;;;15.70;99.90;;;;;;5017399;28;20241;-79
2021/06/21 03:07:47;;;;;;;7.27;4.73;;;15.70;99.90;;;;;;5013026;28;20258;-79
2021/06/21 03:10:15;;;;;;;7.87;4.67;;;15.50;99.90;;;;;;5012654;28;20276;-79
2021/06/21 03:12:44;;;;;;;6.50;4.53;;;15.50;99.90;;;;;;5014626;28;20199;-79
2021/06/21 03:15:14;;;;;;;5.33;4.27;;;15.50;99.90;;;;;;4998553;28;20288;-80
2021/06/21 03:17:43;;;;;;;4.97;4.33;;;15.60;99.90;;;;;;5026804;28;20192;-80
2021/06/21 03:20:11;;;;;;;5.40;4.70;;;15.50;99.90;;;;;;4994837;28;20239;-80
2021/06/21 03:22:39;;;;;;;6.60;4.17;;;15.50;99.90;;;;;;5009391;28;20206;-80
2021/06/21 03:25:07;;;;;;;7.63;4.03;;;15.50;99.90;;;;;;5031314;28;20274;-79
2021/06/21 03:27:36;;;;;;;5.17;4.40;;;15.50;99.90;;;;;;5012420;28;20194;-78
2021/06/21 03:30:13;;;;;;;5.73;3.93;;;15.50;99.90;;;;;;5010598;28;20222;-79
2021/06/21 03:32:42;;;;;;;6.07;3.93;;;15.50;99.90;;;;;;4993995;28;20219;-79
2021/06/21 03:35:11;;;;;;;4.77;4.07;;;15.40;99.90;;;;;;4994791;28;20227;-79
2021/06/21 03:37:39;;;;;;;5.70;3.83;;;15.40;99.90;;;;;;5030315;28;20193;-78
2021/06/21 03:40:08;;;;;;;7.50;4.80;;;15.40;99.90;;;;;;5011612;28;20293;-78
2021/06/21 03:42:36;;;;;;;8.00;4.00;;;15.30;99.90;;;;;;5010752;28;20292;-79
2021/06/21 03:45:07;;;;;;;3.83;3.40;;;15.40;99.90;;;;;;5007058;28;20199;-79
2021/06/21 03:47:39;;;;;;;5.30;3.50;;;15.20;99.90;;;;;;5009568;28;20255;-78
2021/06/21 03:50:07;;;;;;;6.90;4.13;;;15.30;99.90;;;;;;5010317;28;20200;-78
2021/06/21 03:52:34;;;;;;;4.13;3.53;;;15.30;99.90;;;;;;5031515;28;20200;-78
2021/06/21 03:55:07;;;;;;;4.70;4.20;;;15.30;99.90;;;;;;5009556;28;20241;-78
2021/06/21 03:57:41;;;;;;;6.60;3.80;;;15.20;99.90;;;;;;5014112;28;20222;-79
2021/06/21 04:00:17;;;;;;;4.17;3.23;;;15.20;99.90;;;;;;5009124;28;22107;-78
2021/06/21 04:02:45;;;;;;;4.10;3.40;;;15.30;99.90;;;;;;5011610;28;20290;-78
2021/06/21 04:05:12;;;;;;;6.50;3.80;;;15.30;99.90;;;;;;5010059;28;20237;-78
2021/06/21 04:07:40;;;;;;;4.20;3.13;;;15.20;99.90;;;;;;5007735;28;20683;-78
2021/06/21 04:10:09;;;;;;;4.83;3.40;;;15.20;99.90;;;;;;5011161;28;20680;-77
2021/06/21 04:12:37;;;;;;;3.90;3.03;;;15.10;99.90;;;;;;5011445;28;20190;-78
2021/06/21 04:15:06;;;;;;;4.20;3.43;;;15.00;99.90;;;;;;4997010;28;20209;-77
2021/06/21 04:17:33;;;;;;;3.57;3.03;;;15.30;99.90;;;;;;5029194;28;20280;-78
2021/06/21 04:20:00;;;;;;;3.67;3.07;;;15.20;99.90;;;;;;5008608;28;20233;-78
2021/06/21 04:22:27;;;;;;;5.97;3.80;;;15.20;99.90;;;;;;5011260;28;20294;-78
2021/06/21 04:24:54;;;;;;;5.03;3.37;;;15.20;99.90;;;;;;4998143;28;20237;-78
2021/06/21 04:27:21;;;;;;;4.20;3.57;;;15.20;99.90;;;;;;5002143;28;20225;-78
2021/06/21 04:29:48;;;;;;;3.90;2.90;;;15.30;99.90;;;;;;5013308;28;20201;-78
2021/06/21 04:32:14;;;;;;;5.33;3.93;;;15.40;99.90;;;;;;5026958;28;20262;-78
2021/06/21 04:34:42;;;;;;;6.90;3.83;;;15.50;99.90;;;;;;5011979;28;20193;-78
2021/06/21 04:37:09;;;;;;;4.47;3.00;;;15.70;99.90;;;;;;5031498;28;20205;-78
2021/06/21 04:39:36;;;;;;;4.60;3.47;;;15.70;99.90;;;;;;5014196;28;20232;-78
2021/06/21 04:42:03;;;;;;;4.63;3.27;;;15.30;99.90;;;;;;5013542;28;20259;-78
2021/06/21 04:44:30;;;;;;;3.63;3.30;;;15.20;99.90;;;;;;5030326;28;20593;-78
2021/06/21 04:46:57;;;;;;;5.77;2.90;;;15.20;99.90;;;;;;5011039;28;20236;-78
2021/06/21 04:49:24;;;;;;;4.20;2.80;;;15.20;99.90;;;;;;5001378;28;20226;-78
2021/06/21 04:51:52;;;;;;;3.50;2.93;;;15.20;99.90;;;;;;4990904;28;20222;-77
2021/06/21 04:54:19;;;;;;;3.67;3.10;;;15.10;99.90;;;;;;5013162;28;20247;-77
2021/06/21 04:56:46;;;;;;;3.40;3.00;;;15.30;99.90;;;;;;5018619;28;20958;-78
2021/06/21 04:59:14;;;;;;;3.80;2.63;;;15.50;99.90;;;;;;5014417;28;20225;-77
2021/06/21 05:01:41;;;;;;;5.40;2.90;;;15.30;99.90;;;;;;5012677;28;20640;-79
2021/06/21 05:04:08;;;;;;;4.33;2.73;;;15.20;99.90;;;;;;5013805;28;20199;-78
2021/06/21 05:06:36;;;;;;;3.43;2.80;;;15.30;99.90;;;;;;5000978;28;20619;-79
2021/06/21 05:09:07;;;;;;;4.37;3.03;;;15.30;99.90;;;;;;5005410;28;20202;-79
2021/06/21 05:11:34;;;;;;;4.17;2.10;;;15.40;99.90;;;;;;5014253;28;20298;-79
2021/06/21 05:14:02;;;;;;;4.57;2.80;;;15.20;99.90;;;;;;5019110;28;20203;-79
2021/06/21 05:16:29;;;;;;;2.77;2.33;;;15.00;99.90;;;;;;5000669;28;20287;-79
2021/06/21 05:18:56;;;;;;;4.10;2.60;;;15.00;99.90;;;;;;5013021;28;20281;-79
2021/06/21 05:21:23;;;;;;;2.87;2.30;;;15.10;99.90;;;;;;4980442;28;20614;-79
2021/06/21 05:23:50;;;;;;;3.27;2.40;;;15.00;99.90;;;;;;5005576;28;20677;-79
2021/06/21 05:26:17;;;;;;;2.93;2.37;;;14.90;99.90;;;;;;4996685;28;20363;-78
2021/06/21 05:28:44;;;;;;;2.97;2.37;;;14.90;99.90;;;;;;4995881;28;20206;-78
2021/06/21 05:31:10;;;;;;;3.63;2.37;;;14.90;99.90;;;;;;5014162;28;20689;-78
2021/06/21 05:33:37;;;;;;;5.00;2.57;;;14.90;99.90;;;;;;4994763;28;20237;-78
2021/06/21 05:36:04;;;;;;;3.13;2.70;;;14.90;99.90;;;;;;4996554;28;20200;-78
2021/06/21 05:38:31;;;;;;;4.13;2.50;;;14.90;99.90;;;;;;4998260;28;20248;-79
2021/06/21 05:40:58;;;;;;;3.90;2.70;;;14.90;99.90;;;;;;4982749;28;20216;-79
2021/06/21 05:43:25;;;;;;;5.27;2.47;;;14.90;99.90;;;;;;4994092;28;20283;-81
2021/06/21 05:45:53;;;;;;;4.07;2.70;;;14.90;99.90;;;;;;4996847;28;20260;-78
2021/06/21 05:48:20;;;;;;;2.90;2.40;;;15.00;99.90;;;;;;5021817;28;20648;-81
2021/06/21 05:50:49;;;;;;;3.13;2.40;;;14.90;99.90;;;;;;5004188;28;20213;-81
2021/06/21 05:53:15;;;;;;;2.57;2.13;;;14.80;99.90;;;;;;5021042;28;20206;-80
2021/06/21 05:55:43;;;;;;;3.30;2.20;;;14.80;99.90;;;;;;5037585;28;20204;-79
2021/06/21 05:58:10;;;;;;;3.30;2.40;;;14.80;99.90;;;;;;5008347;28;20225;-80
2021/06/21 06:00:37;;;;;;;3.67;2.40;;;14.70;99.90;;;;;;5015536;28;20302;-79
2021/06/21 06:03:05;;;;;;;2.37;2.13;;;14.60;99.90;;;;;;5025967;28;20219;-79
2021/06/21 06:05:32;;;;;;;4.40;2.20;;;14.60;99.90;;;;;;5015631;28;20203;-79
2021/06/21 06:07:59;;;;;;;2.70;2.27;;;14.70;99.90;;;;;;5004040;28;20251;-80
2021/06/21 06:10:26;;;;;;;3.27;2.47;;;14.70;99.90;;;;;;5017674;28;20252;-79
2021/06/21 06:12:52;;;;;;;3.10;2.33;;;14.60;99.90;;;;;;5011560;28;20222;-79
2021/06/21 06:15:20;;;;;;;2.87;2.17;;;14.60;99.90;;;;;;5017185;28;20193;-79
2021/06/21 06:17:47;;;;;;;3.20;2.17;;;14.70;99.90;;;;;;5011174;28;20211;-79
2021/06/21 06:20:14;;;;;;;2.40;2.00;;;14.80;99.90;;;;;;5001560;28;20207;-80
2021/06/21 06:22:42;;;;;;;2.17;1.93;;;14.60;99.90;;;;;;5018146;28;20258;-80
2021/06/21 06:25:10;;;;;;;3.60;1.97;;;14.70;99.90;;;;;;5003162;28;20221;-80
2021/06/21 06:27:38;;;;;;;2.57;2.33;;;14.70;99.90;;;;;;5020059;28;20242;-79
2021/06/21 06:30:11;;;;;;;2.73;2.13;;;14.80;99.90;;;;;;5037977;28;20223;-80
2021/06/21 06:32:39;;;;;;;3.47;2.40;;;14.80;99.90;;;;;;5020517;28;20240;-80
2021/06/21 06:35:08;;;;;;;2.53;1.77;;;14.70;99.90;;;;;;5023959;28;20247;-80
2021/06/21 06:37:35;;;;;;;2.83;1.80;;;14.60;99.90;;;;;;5018952;28;20238;-81
2021/06/21 06:40:04;;;;;;;3.60;2.53;;;14.60;99.90;;;;;;5018321;28;20269;-81
2021/06/21 06:42:31;;;;;;;3.80;2.30;;;14.90;99.90;;;;;;5024985;28;20251;-78
2021/06/21 06:44:58;;;;;;;3.40;2.17;;;14.80;99.90;;;;;;5015254;28;20230;-80
2021/06/21 06:47:25;;;;;;;2.70;2.20;;;14.70;99.90;;;;;;5017755;28;20236;-81
2021/06/21 06:49:51;;;;;;;3.17;2.60;;;14.70;99.90;;;;;;4998078;28;20648;-77
2021/06/21 06:52:20;;;;;;;4.57;2.10;;;14.80;99.90;;;;;;4998627;28;20246;-79
2021/06/21 06:56:57;;;;;;;2.77;2.40;;;14.70;99.90;;;;;;5009829;28;20600;-79
2021/06/21 06:57:35;;;;;;;3.87;2.83;;;14.80;99.90;;;;;;5028682;28;20591;-78
2021/06/21 07:00:06;;;;;;;2.90;2.60;;;15.00;99.90;;;;;;4997173;28;20301;-78
2021/06/21 07:02:33;;;;;;;2.53;2.23;;;14.90;99.90;;;;;;5007566;28;20228;-78
2021/06/21 07:05:01;;;;;;;2.30;2.10;;;14.90;99.90;;;;;;4997649;28;20647;-78
2021/06/21 07:07:28;;;;;;;3.03;2.40;;;15.00;99.90;;;;;;4990757;28;20202;-78
2021/06/21 07:09:55;;;;;;;2.50;2.13;;;15.00;99.90;;;;;;4997661;28;20278;-77
2021/06/21 07:12:22;;;;;;;3.47;2.50;;;15.00;99.90;;;;;;5018439;28;20215;-78
2021/06/21 07:14:49;;;;;;;3.63;2.40;;;14.90;99.90;;;;;;4998652;28;20208;-79
2021/06/21 07:17:15;;;;;;;3.53;2.20;;;14.90;99.90;;;;;;4997100;28;20233;-79
2021/06/21 07:19:42;;;;;;;3.27;2.43;;;15.10;99.90;;;;;;5019676;28;20649;-79
2021/06/21 07:22:10;;;;;;;2.47;2.17;;;15.20;99.90;;;;;;5005493;28;20248;-78
2021/06/21 07:24:36;;;;;;;4.03;2.80;;;15.30;99.90;;;;;;4999392;28;20201;-78
2021/06/21 07:27:04;;;;;;;2.33;2.10;;;15.10;99.90;;;;;;5035931;28;21080;-79
2021/06/21 07:29:32;;;;;;;2.63;2.37;;;15.10;99.90;;;;;;5004109;28;20598;-78
2021/06/21 07:31:59;;;;;;;3.10;2.70;;;15.10;99.90;;;;;;4982064;28;20221;-78
2021/06/21 07:34:26;;;;;;;5.80;2.70;;;15.10;99.90;;;;;;4997326;28;21063;-77
2021/06/21 07:36:53;;;;;;;3.13;1.93;;;15.20;99.90;;;;;;5012957;28;20253;-78
2021/06/21 07:39:20;;;;;;;2.17;1.47;;;15.10;99.90;;;;;;5000395;28;20271;-78
2021/06/21 07:41:48;;;;;;;1.90;1.80;;;14.80;99.90;;;;;;4999619;28;20723;-78
2021/06/21 07:44:15;;;;;;;2.33;1.80;;;14.80;99.90;;;;;;5035842;28;20570;-79
2021/06/21 07:46:42;;;;;;;2.87;1.60;;;14.80;99.90;;;;;;4984445;28;20258;-78
2021/06/21 07:49:10;;;;;;;1.90;1.40;;;14.80;99.90;;;;;;5010850;28;20208;-79
2021/06/21 07:51:36;;;;;;;3.87;1.60;;;14.70;99.90;;;;;;4975336;28;20300;-79
2021/06/21 07:54:04;;;;;;;3.80;2.10;;;14.80;99.90;;;;;;5014178;28;20224;-79
2021/06/21 07:56:30;;;;;;;2.60;2.20;;;15.00;99.90;;;;;;4995837;28;21093;-78
2021/06/21 07:58:57;;;;;;;2.70;2.20;;;15.10;99.90;;;;;;4998734;28;20571;-78
2021/06/21 08:01:24;;;;;;;2.67;1.77;;;15.10;99.90;;;;;;4996659;28;20293;-78
2021/06/21 08:03:53;;;;;;;2.70;1.87;;;15.40;99.90;;;;;;5032130;28;20229;-79
2021/06/21 08:06:20;;;;;;;1.77;1.53;;;15.30;99.90;;;;;;5015037;28;20232;-77
2021/06/21 08:08:47;;;;;;;1.93;1.77;;;15.40;99.90;;;;;;5014170;28;20570;-79
2021/06/21 08:11:13;;;;;;;3.13;1.93;;;15.30;99.90;;;;;;5016283;28;20254;-79
2021/06/21 08:13:40;;;;;;;2.87;2.17;;;15.40;99.90;;;;;;5005979;28;20563;-79
2021/06/21 08:16:08;;;;;;;3.23;1.97;;;15.20;99.90;;;;;;5018535;28;20192;-79
2021/06/21 08:18:35;;;;;;;2.27;2.07;;;15.30;99.90;;;;;;5011409;28;20273;-77
2021/06/21 08:21:02;;;;;;;1.87;1.57;;;15.40;99.90;;;;;;5013597;28;20204;-78
2021/06/21 08:23:31;;;;;;;1.60;1.30;;;15.40;99.90;;;;;;5012345;28;20537;-79
2021/06/21 08:25:58;;;;;;;3.57;1.50;;;15.30;99.90;;;;;;5031289;28;20205;-78
2021/06/21 08:28:26;;;;;;;2.40;1.67;;;15.40;99.90;;;;;;5014831;28;20278;-78
2021/06/21 08:30:52;;;;;;;2.47;1.43;;;15.60;99.90;;;;;;5011037;28;20235;-78
2021/06/21 08:33:19;;;;;;;2.30;1.40;;;15.30;99.90;;;;;;4998512;28;20281;-78
2021/06/21 08:35:50;;;;;;;2.80;1.73;;;15.40;99.90;;;;;;5014667;28;20259;-80
2021/06/21 08:38:17;;;;;;;2.27;1.47;;;15.70;99.90;;;;;;5029485;28;20981;-78
2021/06/21 08:40:44;;;;;;;1.43;1.33;;;15.50;99.90;;;;;;5014216;28;20285;-80
2021/06/21 08:43:12;;;;;;;2.00;1.37;;;15.70;99.90;;;;;;5028098;28;20205;-78
2021/06/21 08:45:39;;;;;;;2.37;1.30;;;15.80;99.90;;;;;;4996314;28;20667;-78
2021/06/21 08:48:08;;;;;;;2.13;1.10;;;15.90;99.90;;;;;;5014620;28;20340;-79
2021/06/21 08:50:39;;;;;;;1.43;1.10;;;15.80;99.90;;;;;;5028157;28;20199;-77
2021/06/21 08:53:10;;;;;;;1.73;1.20;;;15.70;99.90;;;;;;5009663;28;20288;-77
2021/06/21 08:55:37;;;;;;;1.60;1.50;;;15.80;99.90;;;;;;5015462;28;20255;-77
2021/06/21 08:58:04;;;;;;;3.20;1.60;;;15.90;99.90;;;;;;5035375;28;20238;-78
2021/06/21 09:00:31;;;;;;;2.13;1.40;;;16.00;99.90;;;;;;4995490;28;20209;-77
2021/06/21 09:03:03;;;;;;;2.23;1.93;;;15.70;99.90;;;;;;5027013;28;20278;-77
2021/06/21 09:05:34;;;;;;;1.73;1.60;;;15.70;99.90;;;;;;5011344;28;20215;-78
2021/06/21 09:08:05;;;;;;;1.77;1.57;;;15.70;99.90;;;;;;4994783;28;20673;-78
2021/06/21 09:10:34;;;;;;;1.77;1.53;;;15.80;99.90;;;;;;5013818;28;20196;-79
2021/06/21 09:13:18;;;;;;;3.03;1.80;;;16.00;99.90;;;;;;5030702;28;20248;-79
2021/06/21 09:15:54;;;;;;;1.50;1.40;;;15.90;99.90;;;;;;5006445;28;20241;-81
2021/06/21 09:18:25;;;;;;;3.10;1.70;;;16.20;99.90;;;;;;5017283;28;20198;-80
2021/06/21 09:21:23;;;;;;;4.00;1.63;;;15.80;99.90;;;;;;5019911;28;20200;-81
2021/06/21 09:24:15;;;;;;;2.10;1.73;;;15.40;99.90;;;;;;5037756;28;20195;-82
2021/06/21 09:26:44;;;;;;;1.60;1.50;;;15.40;99.90;;;;;;5037289;28;20911;-81
2021/06/21 09:29:11;;;;;;;4.03;1.47;;;15.30;99.90;;;;;;5024985;28;20288;-82
2021/06/21 09:31:58;;;;;;;5.00;1.60;;;15.30;99.90;;;;;;5026145;28;20294;-81
2021/06/21 09:34:27;;;;;;;3.20;1.40;;;15.20;99.90;;;;;;5043964;28;20217;-82
2021/06/21 09:36:56;;;;;;;2.93;1.57;;;15.20;99.90;;;;;;5027267;28;20218;-81
2021/06/21 09:39:28;;;;;;;1.70;1.60;;;15.20;99.90;;;;;;5030285;28;20194;-81
2021/06/21 09:42:17;;;;;;;2.60;2.07;;;15.30;99.90;;;;;;5030426;28;20195;-81
2021/06/21 09:44:49;;;;;;;5.60;2.40;;;15.30;99.90;;;;;;5031610;28;20220;-81
2021/06/21 09:47:20;;;;;;;2.93;2.10;;;15.20;99.90;;;;;;5025424;28;20225;-81
2021/06/21 09:50:12;;;;;;;2.50;2.30;;;15.30;99.90;;;;;;5015983;28;20224;-81
2021/06/21 09:52:45;;;;;;;5.10;2.33;;;15.50;99.90;;;;;;5013926;28;20274;-82
2021/06/21 09:55:37;;;;;;;3.60;2.37;;;15.60;99.90;;;;;;5033221;28;20198;-81
2021/06/21 09:58:14;;;;;;;3.17;2.23;;;15.60;99.90;;;;;;4992239;28;20638;-81
2021/06/21 10:00:43;;;;;;;2.80;2.60;;;15.80;99.90;;;;;;5004367;28;20255;-81
2021/06/21 10:03:11;;;;;;;3.03;2.03;;;15.80;99.90;;;;;;4999164;28;20237;-81
2021/06/21 10:05:42;;;;;;;2.43;2.23;;;15.70;99.90;;;;;;5020533;28;20220;-81
2021/06/21 10:08:12;;;;;;;2.57;2.33;;;15.60;99.90;;;;;;5001085;28;20306;-82
2021/06/21 10:10:41;;;;;;;3.73;2.70;;;15.80;99.90;;;;;;5010143;28;20210;-82
2021/06/21 10:13:09;;;;;;;4.23;2.23;;;15.90;99.90;;;;;;5003085;28;20209;-82
2021/06/21 10:15:36;;;;;;;3.33;2.30;;;16.00;99.90;;;;;;5008535;28;20221;-82
2021/06/21 10:18:05;;;;;;;2.83;2.53;;;15.90;99.90;;;;;;5002031;28;20194;-82
2021/06/21 10:20:35;;;;;;;3.70;2.60;;;16.10;99.90;;;;;;4998418;28;20216;-82
2021/06/21 10:23:05;;;;;;;2.97;2.60;;;16.10;99.90;;;;;;5014873;28;20202;-82
2021/06/21 10:25:32;;;;;;;3.60;2.47;;;15.80;99.90;;;;;;5003849;28;20274;-81
2021/06/21 10:28:01;;;;;;;2.27;1.90;;;15.90;99.90;;;;;;4996177;28;20213;-82
2021/06/21 10:30:29;;;;;;;3.53;2.60;;;15.90;99.90;;;;;;4999251;28;20204;-82
2021/06/21 10:32:56;;;;;;;2.60;2.30;;;16.20;99.90;;;;;;5015138;28;20225;-81
2021/06/21 10:35:29;;;;;;;2.00;1.80;;;16.10;99.90;;;;;;5008365;28;20210;-81
2021/06/21 10:38:03;;;;;;;2.13;1.90;;;16.10;99.90;;;;;;4997538;28;20259;-82
2021/06/21 10:40:29;;;;;;;3.23;1.70;;;16.10;99.90;;;;;;5008786;28;20619;-82
2021/06/21 10:42:57;;;;;;;2.83;2.33;;;16.00;99.90;;;;;;4994078;28;20243;-82
2021/06/21 10:45:27;;;;;;;2.73;2.40;;;16.00;99.90;;;;;;5022188;28;20610;-81
2021/06/21 10:48:10;;;;;;;2.90;2.43;;;16.10;99.90;;;;;;4997416;28;20232;-81
2021/06/21 10:50:52;;;;;;;2.87;2.37;;;16.30;99.90;;;;;;5017943;28;20198;-81
2021/06/21 10:53:20;;;;;;;3.40;2.17;;;16.10;99.90;;;;;;5020313;28;20219;-81
2021/06/21 10:55:52;;;;;;;4.50;2.57;;;16.30;99.90;;;;;;5004627;28;20262;-82
2021/06/21 10:58:21;;;;;;;3.80;2.50;;;16.40;99.90;;;;;;5015362;28;20263;-82
2021/06/21 11:00:50;;;;;;;3.60;2.80;;;16.10;99.90;;;;;;5031631;28;20201;-82
2021/06/21 11:03:23;;;;;;;2.97;2.40;;;16.10;99.90;;;;;;5002002;28;20265;-81
2021/06/21 11:05:53;;;;;;;4.00;2.50;;;16.20;99.90;;;;;;5017962;28;20233;-82
2021/06/21 11:08:45;;;;;;;3.13;2.40;;;16.20;99.90;;;;;;5004616;28;20206;-82
2021/06/21 11:11:38;;;;;;;3.13;2.83;;;16.40;99.90;;;;;;5018963;28;20660;-81
2021/06/21 11:14:06;;;;;;;3.63;2.40;;;16.50;99.90;;;;;;5034511;28;20213;-81
2021/06/21 11:16:33;;;;;;;2.60;2.40;;;16.50;99.90;;;;;;5017978;28;20217;-82
2021/06/21 11:19:21;;;;;;;2.80;2.50;;;16.40;99.90;;;;;;5019194;28;20208;-81
2021/06/21 11:22:02;;;;;;;2.97;2.23;;;16.20;99.90;;;;;;5034442;28;20349;-81
2021/06/21 11:24:47;;;;;;;2.30;2.10;;;16.50;99.90;;;;;;5017011;28;20771;-81
2021/06/21 11:27:16;;;;;;;2.87;2.27;;;16.30;99.90;;;;;;5020009;28;20263;-81
2021/06/21 11:29:55;;;;;;;3.20;2.67;;;16.60;99.90;;;;;;5028456;28;20276;-82
2021/06/21 11:32:24;;;;;;;2.93;2.57;;;16.70;99.90;;;;;;5021265;28;20666;-82
2021/06/21 11:35:02;;;;;;;3.17;2.43;;;16.50;99.90;;;;;;5034759;28;20541;-82
2021/06/21 11:37:35;;;;;;;2.37;2.17;;;16.80;99.90;;;;;;5033635;28;20639;-81
2021/06/21 11:40:23;;;;;;;2.40;2.00;;;16.50;99.90;;;;;;5016786;28;20194;-82
2021/06/21 11:43:00;;;;;;;2.33;2.13;;;16.40;99.90;;;;;;4997455;28;20291;-82
2021/06/21 11:46:06;;;;;;;2.23;2.00;;;16.30;99.90;;;;;;5018722;28;20642;-82
2021/06/21 11:48:36;;;;;;;2.83;2.53;;;16.30;99.90;;;;;;4994848;28;20235;-82
2021/06/21 11:51:15;;;;;;;2.33;2.13;;;16.30;99.90;;;;;;4987386;28;20205;-82
2021/06/21 11:53:43;;;;;;;2.40;2.20;;;16.50;99.90;;;;;;4995161;28;20229;-81
2021/06/21 11:56:31;;;;;;;2.70;2.20;;;16.60;99.90;;;;;;4999064;28;20201;-81
2021/06/21 11:58:59;;;;;;;4.17;2.07;;;16.20;99.90;;;;;;4992764;28;20193;-81
2021/06/21 12:01:28;;;;;;;3.40;2.20;;;16.30;99.90;;;;;;4998500;28;20229;-81
2021/06/21 12:04:00;;;;;;;3.03;2.30;;;16.60;99.90;;;;;;5006310;28;20201;-83
2021/06/21 12:06:29;;;;;;;2.33;2.03;;;16.80;99.90;;;;;;5004862;28;21149;-81
2021/06/21 12:08:56;;;;;;;2.73;2.40;;;16.70;99.90;;;;;;4991102;28;20235;-81
2021/06/21 12:11:26;;;;;;;2.33;2.13;;;16.80;99.90;;;;;;4999928;28;20266;-81
2021/06/21 12:13:59;;;;;;;3.30;2.57;;;16.80;99.90;;;;;;4994525;28;20806;-80
2021/06/21 12:16:28;;;;;;;2.07;1.87;;;16.60;99.90;;;;;;4992891;28;20247;-81
2021/06/21 12:18:58;;;;;;;3.23;2.60;;;16.60;99.90;;;;;;4992023;28;20206;-81
2021/06/21 12:21:35;;;;;;;3.13;2.83;;;16.50;99.90;;;;;;5002271;28;20257;-80
2021/06/21 12:24:26;;;;;;;2.87;2.53;;;16.50;99.90;;;;;;4993809;28;20230;-80
2021/06/21 12:27:01;;;;;;;3.00;2.50;;;16.50;99.90;;;;;;4999378;28;20197;-81
2021/06/21 12:29:38;;;;;;;2.43;2.23;;;16.70;99.90;;;;;;5005763;28;20217;-81
2021/06/21 12:32:10;;;;;;;2.53;2.33;;;16.50;99.90;;;;;;5005621;28;20229;-80
2021/06/21 12:34:55;;;;;;;3.20;2.27;;;16.50;99.90;;;;;;5006553;28;20466;-81
2021/06/21 12:37:33;;;;;;;2.97;2.67;;;16.90;99.90;;;;;;4992643;28;20228;-82
2021/06/21 12:40:00;;;;;;;3.37;2.60;;;16.90;99.90;;;;;;4987881;28;20208;-81
2021/06/21 12:42:31;;;;;;;2.60;2.40;;;16.80;99.90;;;;;;4994344;28;20213;-82
2021/06/21 12:45:18;;;;;;;3.67;2.77;;;17.10;99.90;;;;;;4995626;28;20275;-79
2021/06/21 12:47:54;;;;;;;2.77;2.27;;;17.00;99.90;;;;;;4993381;28;20233;-80
2021/06/21 12:50:23;;;;;;;3.00;2.40;;;16.80;99.90;;;;;;5006830;28;20200;-81
2021/06/21 12:52:53;;;;;;;4.73;2.97;;;16.80;99.90;;;;;;4998192;28;20294;-82
2021/06/21 12:55:26;;;;;;;3.80;2.50;;;17.00;99.90;;;;;;5001102;28;20213;-81
2021/06/21 12:57:59;;;;;;;3.90;2.53;;;17.10;99.90;;;;;;5001670;28;20207;-81
2021/06/21 13:00:39;;;;;;;5.97;3.77;;;17.00;99.90;;;;;;4998558;28;20228;-81
2021/06/21 13:03:15;;;;;;;3.60;3.10;;;16.90;99.90;;;;;;5012969;28;20226;-82